Foster City, California
Current Conditions -  °F | °C
As of 9:47 AM on Friday 24 Oct 2014 (Local Time) from KSQL Reporting Station
Few Clouds Few Clouds  
Wind Chill: 63°   Ceiling: Unl
Heat Index: 63°   Visibility: 10mi
Dew Point: 55°   Wind: 3mph
Humidity: 77%   Direction: 100°E
Pressure: 29.99"   Gusts: NA
Location:  37.56°N, 122.26°W
Report Text: KSQL 241647Z 10003KT 10SM FEW013 17/13 A2999
Loading
Personal Weather Stations






























Interactive Weather Map
Tropical Storm Tracking
New forecast layout! Learn more

10-Day Weather Forecast

Advertisements
Track Severe Weather on mobile